createdAt,value
2019-03-28T00:01:12.805Z,18.47
2019-03-28T00:03:43.180Z,19.93
2019-03-28T00:06:13.576Z,21.37
2019-03-28T00:08:43.863Z,17.00
2019-03-28T00:11:14.330Z,20.93
2019-03-28T00:13:44.800Z,19.70
2019-03-28T00:16:15.172Z,17.60
2019-03-28T00:18:46.025Z,20.30
2019-03-28T00:21:16.414Z,17.33
2019-03-28T00:24:18.356Z,19.87
2019-03-28T00:26:48.799Z,17.67
2019-03-28T00:29:19.213Z,17.97
2019-03-28T00:31:50.554Z,20.87
2019-03-28T00:34:21.016Z,20.80
2019-03-28T00:36:51.591Z,16.40
2019-03-28T00:39:22.059Z,21.73
2019-03-28T00:41:52.616Z,20.67
2019-03-28T00:44:23.013Z,18.17
2019-03-28T00:46:53.504Z,20.33
2019-03-28T00:49:23.960Z,20.97
2019-03-28T00:51:54.725Z,22.77
2019-03-28T00:54:25.484Z,23.43
2019-03-28T00:56:56.396Z,24.67
2019-03-28T00:59:27.320Z,19.97
2019-03-28T01:01:57.841Z,19.87
2019-03-28T01:04:28.286Z,20.83
2019-03-28T01:06:59.615Z,17.97
2019-03-28T01:09:30.114Z,19.70
2019-03-28T01:12:00.575Z,22.33
2019-03-28T01:14:31.047Z,19.80
2019-03-28T01:17:01.345Z,21.00
2019-03-28T01:19:31.909Z,23.67
2019-03-28T01:22:02.471Z,23.93
2019-03-28T01:24:32.828Z,19.17
2019-03-28T01:27:03.336Z,19.13
2019-03-28T01:29:34.541Z,20.63
2019-03-28T01:32:04.957Z,19.70
2019-03-28T01:34:35.323Z,19.30
2019-03-28T01:37:05.902Z,23.33
2019-03-28T01:39:36.402Z,21.07
2019-03-28T01:42:06.936Z,19.50
2019-03-28T01:44:37.534Z,22.27
2019-03-28T01:47:08.884Z,21.60
2019-03-28T01:49:39.271Z,22.40
2019-03-28T01:52:09.903Z,24.23
2019-03-28T01:54:40.292Z,21.40
2019-03-28T01:57:12.159Z,24.00
2019-03-28T01:59:42.972Z,23.03
2019-03-28T02:02:13.743Z,22.73
2019-03-28T02:04:44.103Z,20.80
2019-03-28T02:07:14.910Z,21.63
2019-03-28T02:09:45.586Z,22.90
2019-03-28T02:12:16.083Z,23.07
2019-03-28T02:14:47.051Z,22.77
2019-03-28T02:17:17.441Z,21.87
2019-03-28T02:19:47.912Z,25.50
2019-03-28T02:22:18.402Z,24.50
2019-03-28T02:24:49.960Z,19.53
2019-03-28T02:27:24.354Z,22.17
2019-03-28T02:29:53.660Z,25.57
2019-03-28T02:32:24.465Z,24.47
2019-03-28T02:34:54.967Z,24.77
2019-03-28T02:37:25.398Z,23.93
2019-03-28T02:39:56.830Z,24.50
2019-03-28T02:42:27.934Z,24.63
2019-03-28T02:44:58.585Z,22.90
2019-03-28T02:47:29.116Z,23.87
2019-03-28T02:49:59.584Z,23.50
2019-03-28T02:52:30.189Z,23.67
2019-03-28T02:55:00.764Z,22.23
2019-03-28T02:57:41.077Z,26.40
2019-03-28T03:00:03.422Z,22.10
2019-03-28T03:02:34.411Z,25.70
2019-03-28T03:05:05.039Z,26.67
2019-03-28T03:07:35.559Z,18.87
2019-03-28T03:10:06.666Z,24.17
2019-03-28T03:12:37.253Z,22.07
2019-03-28T03:15:08.109Z,22.40
2019-03-28T03:17:38.993Z,21.80
2019-03-28T03:20:09.845Z,21.87
2019-03-28T03:22:40.343Z,21.77
2019-03-28T03:25:10.810Z,24.73
2019-03-28T03:27:56.792Z,25.83
2019-03-28T03:30:13.591Z,27.33
2019-03-28T03:32:44.245Z,22.90
2019-03-28T03:35:15.824Z,22.73
2019-03-28T03:37:46.339Z,24.77
2019-03-28T03:40:16.906Z,23.57
2019-03-28T03:42:47.305Z,25.87
2019-03-28T03:45:17.685Z,27.50
2019-03-28T03:47:48.103Z,27.07
2019-03-28T03:50:27.601Z,24.23
2019-03-28T03:52:58.083Z,24.97
2019-03-28T03:55:28.863Z,25.77
2019-03-28T03:58:14.468Z,28.87
2019-03-28T04:00:34.008Z,22.40
2019-03-28T04:03:05.257Z,24.90
2019-03-28T04:05:35.653Z,24.20
2019-03-28T04:08:06.220Z,22.97
2019-03-28T04:10:37.086Z,21.70
2019-03-28T04:13:07.965Z,22.47
2019-03-28T04:15:38.539Z,24.67
2019-03-28T04:18:08.865Z,24.00
2019-03-28T04:20:39.313Z,23.73
2019-03-28T04:23:09.849Z,23.33
2019-03-28T04:25:40.315Z,26.10
2019-03-28T04:28:10.826Z,23.00
2019-03-28T04:30:41.227Z,24.77
2019-03-28T04:33:12.463Z,26.07
2019-03-28T04:35:42.871Z,24.07
2019-03-28T04:38:13.577Z,28.10
2019-03-28T04:40:43.927Z,32.97
2019-03-28T04:43:14.266Z,26.20
2019-03-28T04:45:44.602Z,28.30
2019-03-28T04:48:15.049Z,27.37
2019-03-28T04:50:45.526Z,31.53
2019-03-28T04:53:15.786Z,27.37
2019-03-28T04:55:46.322Z,30.77
2019-03-28T04:58:21.579Z,29.10
2019-03-28T05:00:51.092Z,27.63
2019-03-28T05:03:21.606Z,30.70
2019-03-28T05:05:52.095Z,28.57
2019-03-28T05:08:22.552Z,31.27
2019-03-28T05:10:53.110Z,32.33
2019-03-28T05:13:23.605Z,29.73
2019-03-28T05:15:53.979Z,30.80
2019-03-28T05:18:24.762Z,32.90
2019-03-28T05:20:55.530Z,29.23
2019-03-28T05:23:26.634Z,32.13
2019-03-28T05:25:57.016Z,29.80
2019-03-28T05:29:01.480Z,35.13
2019-03-28T05:31:31.928Z,30.93
2019-03-28T05:34:02.407Z,33.63
2019-03-28T05:36:32.873Z,34.33
2019-03-28T05:39:04.121Z,31.07
2019-03-28T05:41:34.922Z,34.83
2019-03-28T05:44:05.399Z,30.80
2019-03-28T05:46:35.814Z,29.80
2019-03-28T05:49:06.156Z,29.63
2019-03-28T05:51:37.624Z,28.10
2019-03-28T05:54:08.412Z,27.77
2019-03-28T05:56:38.926Z,26.63
2019-03-28T05:59:11.233Z,27.53
2019-03-28T06:01:42.014Z,30.57
2019-03-28T06:04:12.740Z,30.27
2019-03-28T06:06:43.202Z,31.10
2019-03-28T06:09:13.728Z,31.57
2019-03-28T06:11:44.498Z,27.10
2019-03-28T06:14:15.262Z,34.40
2019-03-28T06:16:45.949Z,30.90
2019-03-28T06:19:16.240Z,27.67
2019-03-28T06:21:47.473Z,26.57
2019-03-28T06:24:18.325Z,25.43
2019-03-28T06:26:50.122Z,26.63
2019-03-28T06:29:24.032Z,29.50
2019-03-28T06:31:55.633Z,29.73
2019-03-28T06:34:26.445Z,26.00
2019-03-28T06:36:57.207Z,29.23
2019-03-28T06:39:27.687Z,32.77
2019-03-28T06:41:58.392Z,29.73
2019-03-28T06:44:29.441Z,27.70
2019-03-28T06:46:59.876Z,26.43
2019-03-28T06:49:30.259Z,29.53
2019-03-28T06:52:00.790Z,32.03
2019-03-28T06:54:31.339Z,27.47
2019-03-28T06:57:01.741Z,26.03
2019-03-28T06:59:37.656Z,29.57
2019-03-28T07:02:04.307Z,23.63
2019-03-28T07:04:34.739Z,26.40
2019-03-28T07:07:05.056Z,26.00
2019-03-28T07:09:35.408Z,24.17
2019-03-28T07:12:05.942Z,26.23
2019-03-28T07:14:36.363Z,26.40
2019-03-28T07:17:06.776Z,29.57
2019-03-28T07:19:37.516Z,25.07
2019-03-28T07:22:07.927Z,27.10
2019-03-28T07:24:38.389Z,26.47
2019-03-28T07:27:08.935Z,24.23
2019-03-28T07:29:50.322Z,24.27
2019-03-28T07:32:12.066Z,25.57
2019-03-28T07:34:42.537Z,24.87
2019-03-28T07:37:12.842Z,22.13
2019-03-28T07:39:43.609Z,19.00
2019-03-28T07:42:13.920Z,19.43
2019-03-28T07:44:44.458Z,23.03
2019-03-28T07:47:16.015Z,18.70
2019-03-28T07:49:46.503Z,24.00
2019-03-28T07:52:19.885Z,25.10
2019-03-28T07:54:49.404Z,20.17
2019-03-28T07:57:19.815Z,27.87
2019-03-28T08:00:03.270Z,17.57
2019-03-28T08:02:22.437Z,16.83
2019-03-28T08:04:52.815Z,20.17
2019-03-28T08:07:23.547Z,22.97
2019-03-28T08:09:53.901Z,21.97
2019-03-28T08:12:24.297Z,24.30
2019-03-28T08:14:54.779Z,15.63
2019-03-28T08:17:25.376Z,16.25
2019-03-28T08:19:55.746Z,17.17
2019-03-28T08:22:29.501Z,16.30
2019-03-28T08:24:58.709Z,18.42
2019-03-28T08:27:29.175Z,17.15
2019-03-28T08:30:00.192Z,15.37
2019-03-28T08:32:31.086Z,18.67
2019-03-28T08:35:01.447Z,19.48
2019-03-28T08:37:32.947Z,17.20
2019-03-28T08:40:03.583Z,15.28
2019-03-28T08:42:34.008Z,12.50
2019-03-28T08:45:05.305Z,15.25
2019-03-28T08:47:35.710Z,14.10
2019-03-28T08:50:06.867Z,12.18
2019-03-28T08:52:38.404Z,16.20
2019-03-28T08:55:10.089Z,14.75
2019-03-28T08:57:41.316Z,15.58
2019-03-28T09:00:12.230Z,11.55
2019-03-28T09:02:42.585Z,13.38
2019-03-28T09:05:13.258Z,12.05
2019-03-28T09:07:44.074Z,11.33
2019-03-28T09:10:14.531Z,21.97
2019-03-28T09:12:45.524Z,12.43
2019-03-28T09:15:16.765Z,12.30
2019-03-28T09:17:48.396Z,14.95
2019-03-28T09:20:19.020Z,12.82
2019-03-28T09:22:49.558Z,12.50
2019-03-28T09:25:20.024Z,13.40
2019-03-28T09:27:51.784Z,10.72
2019-03-28T09:30:48.613Z,13.80
2019-03-28T09:33:14.693Z,13.62
2019-03-28T09:35:45.509Z,9.93
2019-03-28T09:38:16.345Z,10.18
2019-03-28T09:40:46.860Z,10.28
2019-03-28T09:43:17.525Z,11.33
2019-03-28T09:45:48.075Z,11.43
2019-03-28T09:48:18.521Z,9.38
2019-03-28T09:50:49.084Z,9.60
2019-03-28T09:53:19.480Z,9.15
2019-03-28T09:55:49.813Z,9.43
2019-03-28T09:58:20.413Z,9.45
2019-03-28T10:01:02.244Z,11.22
2019-03-28T10:03:23.810Z,10.40
2019-03-28T10:05:54.644Z,11.08
2019-03-28T10:08:25.059Z,7.50
2019-03-28T10:10:55.500Z,7.47
2019-03-28T10:13:25.881Z,6.20
2019-03-28T10:15:57.478Z,7.10
2019-03-28T10:18:30.094Z,4.60
2019-03-28T10:21:00.259Z,6.05
2019-03-28T10:23:30.740Z,6.87
2019-03-28T10:26:02.212Z,6.75
2019-03-28T10:28:32.979Z,8.05
2019-03-28T10:31:15.915Z,8.40
2019-03-28T10:33:35.835Z,5.75
2019-03-28T10:36:06.154Z,3.55
2019-03-28T10:38:36.560Z,6.30
2019-03-28T10:41:07.050Z,5.22
2019-03-28T10:43:37.569Z,6.87
2019-03-28T10:46:08.191Z,6.87
2019-03-28T10:48:38.726Z,5.85
2019-03-28T10:51:09.251Z,2.90
2019-03-28T10:53:40.065Z,4.37
2019-03-28T10:56:20.889Z,3.52
2019-03-28T10:58:42.610Z,6.83
2019-03-28T11:01:16.523Z,5.45
2019-03-28T11:03:46.031Z,3.42
2019-03-28T11:06:16.524Z,4.22
2019-03-28T11:08:46.995Z,2.00
2019-03-28T11:11:17.519Z,3.95
2019-03-28T11:13:48.784Z,5.12
2019-03-28T11:16:19.582Z,2.37
2019-03-28T11:18:50.148Z,6.30
2019-03-28T11:21:20.774Z,6.47
2019-03-28T11:23:51.516Z,4.28
2019-03-28T11:26:22.028Z,4.60
2019-03-28T11:28:52.851Z,3.37
2019-03-28T11:31:23.782Z,5.37
2019-03-28T11:33:55.130Z,5.28
2019-03-28T11:36:25.769Z,3.37
2019-03-28T11:38:56.524Z,3.80
2019-03-28T11:41:27.626Z,4.05
2019-03-28T11:43:58.441Z,4.42
2019-03-28T11:46:28.975Z,7.30
2019-03-28T11:49:00.257Z,4.47
2019-03-28T11:51:30.820Z,4.42
2019-03-28T11:54:02.287Z,4.83
2019-03-28T11:56:32.727Z,3.75
2019-03-28T11:59:04.636Z,4.62
2019-03-28T12:01:35.205Z,3.80
2019-03-28T12:04:05.907Z,4.67
2019-03-28T12:06:36.217Z,5.10
2019-03-28T12:09:08.186Z,3.25
2019-03-28T12:11:39.024Z,5.03
2019-03-28T12:14:09.307Z,4.50
2019-03-28T12:16:40.703Z,7.22
2019-03-28T12:19:11.140Z,5.33
2019-03-28T12:21:41.660Z,6.55
2019-03-28T12:24:12.179Z,7.05
2019-03-28T12:26:42.591Z,7.62
2019-03-28T12:29:13.458Z,6.35
2019-03-28T12:31:44.068Z,6.12
2019-03-28T12:34:14.459Z,8.55
2019-03-28T12:36:44.890Z,6.53
2019-03-28T12:39:15.899Z,8.00
2019-03-28T12:41:46.199Z,4.55
2019-03-28T12:44:16.753Z,5.12
2019-03-28T12:46:47.371Z,9.73
2019-03-28T12:49:17.939Z,7.25
2019-03-28T12:51:48.439Z,7.62
2019-03-28T12:54:18.846Z,7.60
2019-03-28T12:56:49.372Z,6.92
2019-03-28T12:59:19.724Z,7.28
2019-03-28T13:01:50.035Z,8.58
2019-03-28T13:04:20.452Z,8.33
2019-03-28T13:06:50.897Z,9.35
2019-03-28T13:09:21.656Z,6.67
2019-03-28T13:11:52.031Z,7.25
2019-03-28T13:14:22.767Z,7.65
2019-03-28T13:16:53.254Z,6.28
2019-03-28T13:19:23.710Z,6.40
2019-03-28T13:21:54.263Z,7.72
2019-03-28T13:24:24.757Z,7.12
2019-03-28T13:26:55.253Z,6.37
2019-03-28T13:29:25.912Z,6.17
2019-03-28T13:31:56.275Z,5.67
2019-03-28T13:34:26.945Z,7.80
2019-03-28T13:36:57.539Z,6.47
2019-03-28T13:39:28.435Z,7.67
2019-03-28T13:41:58.828Z,5.85
2019-03-28T13:44:30.330Z,5.60
2019-03-28T13:47:00.756Z,6.87
2019-03-28T13:49:31.142Z,5.92
2019-03-28T13:52:01.665Z,10.25
2019-03-28T13:54:32.079Z,7.00
2019-03-28T13:57:02.524Z,6.62
2019-03-28T13:59:35.383Z,9.13
2019-03-28T14:02:06.891Z,6.42
2019-03-28T14:04:37.223Z,8.23
2019-03-28T14:07:07.691Z,6.87
2019-03-28T14:09:38.203Z,5.50
2019-03-28T14:12:09.009Z,5.75
2019-03-28T14:14:40.082Z,7.87
2019-03-28T14:17:10.719Z,9.53
2019-03-28T14:19:41.279Z,5.95
2019-03-28T14:22:11.691Z,5.40
2019-03-28T14:24:42.232Z,6.35
2019-03-28T14:27:13.698Z,5.87
2019-03-28T14:29:44.471Z,6.92
2019-03-28T14:32:14.890Z,6.33
2019-03-28T14:34:45.594Z,6.97
2019-03-28T14:37:17.231Z,6.67
2019-03-28T14:39:49.365Z,7.10
2019-03-28T14:42:20.201Z,5.20
2019-03-28T14:44:50.725Z,4.17
2019-03-28T14:47:21.122Z,4.62
2019-03-28T14:49:51.908Z,4.85
2019-03-28T14:52:23.670Z,5.20
2019-03-28T14:54:54.143Z,5.20
2019-03-28T14:57:24.800Z,6.53
2019-03-28T14:59:57.163Z,5.17
2019-03-28T15:02:27.643Z,6.33
2019-03-28T15:04:58.435Z,4.97
2019-03-28T15:07:29.429Z,6.87
2019-03-28T15:09:59.890Z,6.72
2019-03-28T15:12:30.390Z,6.42
2019-03-28T15:15:00.795Z,7.08
2019-03-28T15:17:31.095Z,4.72
2019-03-28T15:20:01.954Z,6.10
2019-03-28T15:22:32.398Z,9.73
2019-03-28T15:25:02.799Z,9.00
2019-03-28T15:27:33.625Z,11.00
2019-03-28T15:30:04.335Z,6.12
2019-03-28T15:32:35.509Z,7.85
2019-03-28T15:35:06.178Z,7.42
2019-03-28T15:37:36.578Z,6.30
2019-03-28T15:40:08.721Z,6.33
2019-03-28T15:42:39.367Z,6.25
2019-03-28T15:45:09.934Z,8.35
2019-03-28T15:47:40.403Z,7.60
2019-03-28T15:50:11.099Z,8.40
2019-03-28T15:52:41.996Z,9.20
2019-03-28T15:55:14.731Z,8.08
2019-03-28T15:57:44.591Z,7.70
2019-03-28T16:00:15.478Z,9.08
2019-03-28T16:02:45.762Z,9.68
2019-03-28T16:05:16.602Z,7.90
2019-03-28T16:07:47.049Z,6.92
2019-03-28T16:10:18.818Z,6.72
2019-03-28T16:12:49.229Z,7.50
2019-03-28T16:15:19.962Z,6.87
2019-03-28T16:17:50.778Z,7.50
2019-03-28T16:20:21.291Z,6.80
2019-03-28T16:22:51.760Z,6.70
2019-03-28T16:25:23.230Z,7.45
2019-03-28T16:27:53.547Z,7.53
2019-03-28T16:30:35.784Z,9.38
2019-03-28T16:33:06.749Z,11.10
2019-03-28T16:35:37.331Z,7.58
2019-03-28T16:38:08.108Z,7.45
2019-03-28T16:40:38.438Z,9.88
2019-03-28T16:43:08.985Z,8.20
2019-03-28T16:45:39.627Z,9.30
2019-03-28T16:48:10.270Z,8.30
2019-03-28T16:50:41.119Z,8.28
2019-03-28T16:53:11.679Z,8.20
2019-03-28T16:55:42.307Z,10.05
2019-03-28T16:58:13.045Z,9.05
2019-03-28T17:00:43.710Z,9.58
2019-03-28T17:03:14.046Z,8.63
2019-03-28T17:05:47.166Z,7.72
2019-03-28T17:08:17.799Z,9.65
2019-03-28T17:10:51.457Z,13.85
2019-03-28T17:13:22.050Z,21.60
2019-03-28T17:15:52.853Z,25.97
2019-03-28T17:18:23.358Z,23.38
2019-03-28T17:20:54.174Z,28.62
2019-03-28T17:23:24.631Z,71.72
2019-03-28T17:25:55.128Z,65.00
2019-03-28T17:28:26.798Z,16.20
2019-03-28T17:30:57.306Z,11.78
2019-03-28T17:33:27.660Z,15.38
2019-03-28T17:35:58.163Z,16.50
2019-03-28T17:38:28.882Z,12.53
2019-03-28T17:40:59.207Z,7.83
2019-03-28T17:43:29.625Z,8.25
2019-03-28T17:46:00.092Z,10.33
2019-03-28T17:48:30.984Z,8.25
2019-03-28T17:51:01.726Z,9.20
2019-03-28T17:53:32.229Z,8.20
2019-03-28T17:56:02.827Z,7.72
2019-03-28T17:58:33.290Z,11.20
2019-03-28T18:01:04.158Z,7.58
2019-03-28T18:03:34.822Z,8.28
2019-03-28T18:06:05.299Z,9.10
2019-03-28T18:08:35.850Z,10.55
2019-03-28T18:11:06.291Z,8.05
2019-03-28T18:13:36.670Z,12.82
2019-03-28T18:16:07.693Z,15.32
2019-03-28T18:18:38.265Z,17.40
2019-03-28T18:21:08.640Z,17.40
2019-03-28T18:23:39.063Z,12.55
2019-03-28T18:26:09.638Z,11.40
2019-03-28T18:28:40.491Z,15.80
2019-03-28T18:31:11.692Z,10.55
2019-03-28T18:33:42.523Z,12.50
2019-03-28T18:36:12.947Z,10.45
2019-03-28T18:38:43.642Z,14.63
2019-03-28T18:41:14.345Z,11.53
2019-03-28T18:43:44.810Z,8.67
2019-03-28T18:46:15.225Z,9.03
2019-03-28T18:48:46.612Z,8.33
2019-03-28T18:51:17.603Z,8.43
2019-03-28T18:53:48.354Z,11.05
2019-03-28T18:56:18.834Z,9.68
2019-03-28T18:58:49.266Z,10.63
2019-03-28T19:01:19.984Z,11.83
2019-03-28T19:03:50.874Z,36.13
2019-03-28T19:06:21.469Z,49.25
2019-03-28T19:08:51.891Z,47.08
2019-03-28T19:11:22.607Z,19.50
2019-03-28T19:13:53.659Z,14.67
2019-03-28T19:16:24.082Z,15.43
2019-03-28T19:18:54.512Z,17.77
2019-03-28T19:21:25.258Z,17.13
2019-03-28T19:23:55.763Z,15.88
2019-03-28T19:26:26.140Z,15.93
2019-03-28T19:28:57.218Z,15.80
2019-03-28T19:31:27.598Z,17.87
2019-03-28T19:33:58.112Z,15.40
2019-03-28T19:36:29.572Z,11.10
2019-03-28T19:39:00.263Z,12.37
2019-03-28T19:41:30.991Z,12.70
2019-03-28T19:44:02.883Z,14.95
2019-03-28T19:46:33.276Z,11.20
2019-03-28T19:49:03.768Z,14.30
2019-03-28T19:51:34.286Z,14.18
2019-03-28T19:54:05.348Z,20.17
2019-03-28T19:56:35.988Z,19.00
2019-03-28T19:59:07.010Z,17.15
2019-03-28T20:01:37.659Z,14.43
2019-03-28T20:04:08.962Z,18.23
2019-03-28T20:06:39.513Z,20.93
2019-03-28T20:09:16.503Z,19.37
2019-03-28T20:11:42.995Z,22.65
2019-03-28T20:14:13.545Z,21.73
2019-03-28T20:16:44.197Z,16.30
2019-03-28T20:19:17.731Z,14.33
2019-03-28T20:21:47.454Z,15.03
2019-03-28T20:24:17.987Z,17.35
2019-03-28T20:26:48.610Z,14.83
2019-03-28T20:29:19.445Z,15.98
2019-03-28T20:31:50.098Z,15.75
2019-03-28T20:34:20.596Z,15.03
2019-03-28T20:36:52.862Z,14.95
2019-03-28T20:39:23.930Z,13.30
2019-03-28T20:41:54.315Z,14.23
2019-03-28T20:44:24.857Z,14.43
2019-03-28T20:46:58.723Z,12.85
2019-03-28T20:49:27.822Z,15.05
2019-03-28T20:51:58.384Z,10.50
2019-03-28T20:54:28.897Z,16.07
2019-03-28T20:56:59.739Z,15.25
2019-03-28T20:59:30.294Z,12.37
2019-03-28T21:02:01.261Z,14.73
2019-03-28T21:04:32.108Z,13.83
2019-03-28T21:07:02.998Z,13.23
2019-03-28T21:09:33.377Z,15.65
2019-03-28T21:12:03.816Z,16.07
2019-03-28T21:14:34.244Z,13.43
2019-03-28T21:17:05.236Z,12.77
2019-03-28T21:19:35.890Z,14.13
2019-03-28T21:22:06.371Z,17.40
2019-03-28T21:24:36.776Z,12.68
2019-03-28T21:27:07.338Z,14.40
2019-03-28T21:29:48.305Z,12.70
2019-03-28T21:32:10.877Z,12.93
2019-03-28T21:34:41.370Z,11.40
2019-03-28T21:37:12.398Z,12.67
2019-03-28T21:39:42.842Z,14.37
2019-03-28T21:42:13.230Z,17.20
2019-03-28T21:44:44.113Z,14.87
2019-03-28T21:47:14.578Z,18.90
2019-03-28T21:49:44.997Z,19.53
2019-03-28T21:52:15.439Z,14.50
2019-03-28T21:54:46.118Z,14.77
2019-03-28T21:57:16.474Z,14.10
2019-03-28T21:59:47.339Z,13.13
2019-03-28T22:02:18.068Z,15.10
2019-03-28T22:04:48.651Z,14.85
2019-03-28T22:07:18.982Z,16.97
2019-03-28T22:09:49.523Z,14.63
2019-03-28T22:12:19.974Z,14.70
2019-03-28T22:14:50.556Z,19.37
2019-03-28T22:17:20.967Z,14.17
2019-03-28T22:19:51.819Z,13.50
2019-03-28T22:22:22.541Z,14.13
2019-03-28T22:24:53.134Z,17.35
2019-03-28T22:27:23.819Z,13.03
2019-03-28T22:29:54.345Z,16.90
2019-03-28T22:32:24.703Z,14.45
2019-03-28T22:34:55.138Z,15.70
2019-03-28T22:37:26.171Z,24.95
2019-03-28T22:39:56.587Z,19.37
2019-03-28T22:42:27.331Z,20.43
2019-03-28T22:44:58.058Z,20.02
2019-03-28T22:47:28.498Z,16.50
2019-03-28T22:49:58.921Z,19.03
2019-03-28T22:52:29.493Z,18.17
2019-03-28T22:55:00.385Z,16.97
2019-03-28T22:57:30.869Z,17.67
2019-03-28T23:00:04.143Z,17.67
2019-03-28T23:02:35.211Z,20.17
2019-03-28T23:05:06.849Z,21.97
2019-03-28T23:07:37.288Z,22.93
2019-03-28T23:10:08.831Z,19.50
2019-03-28T23:12:39.394Z,14.50
2019-03-28T23:15:11.464Z,12.20
2019-03-28T23:17:41.968Z,14.33
2019-03-28T23:20:12.792Z,16.00
2019-03-28T23:22:44.066Z,15.53
2019-03-28T23:25:14.562Z,15.07
2019-03-28T23:27:45.040Z,16.03
2019-03-28T23:30:15.639Z,15.77
2019-03-28T23:32:46.426Z,17.80
2019-03-28T23:35:16.935Z,16.27
2019-03-28T23:37:47.318Z,16.77
2019-03-28T23:40:18.052Z,14.83
2019-03-28T23:42:48.646Z,15.47
2019-03-28T23:45:19.718Z,13.37
2019-03-28T23:47:51.472Z,17.20
2019-03-28T23:50:22.326Z,20.87
2019-03-28T23:52:52.719Z,19.97
2019-03-28T23:55:23.216Z,19.07
2019-03-28T23:57:54.546Z,23.13
